CheckWX is a tool to help pilots better visualize weather data.  It is not intended as a substitute for an official pre-flight weather briefing.

09:48:45 UTC

KOCQ METAR
Oconto-J Douglas Bake Municipal Airport
Oconto, Wisconsin, USA
Current

34 mins ago

KOCQ 200915Z AUTO 00000KT 10SM OVC110 M11/M13 A3025 RMK AO1 T11151135
Observed
Feb-20 @ 09:15 UTC
Visibility
16,093 meters
Flight Rules
VFR
Cloud Levels
  • Overcast at 11,000' AGL
Temperature
-12°C / 10°F
Dewpoint
-14°C / 7°F
Humidity
85%
Altimeter
30.25" Hg
Pressure
1024.42 hPa
Previous

54 mins ago

KOCQ 200855Z AUTO 00000KT 10SM BKN120 M12/M14 A3027 RMK AO1 T11201141
Observed
Feb-20 @ 08:55 UTC
Visibility
16,093 meters
Flight Rules
VFR
Cloud Levels
  • Broken at 12,000' AGL
Temperature
-12°C / 10°F
Dewpoint
-14°C / 7°F
Humidity
85%
Altimeter
30.27" Hg
Pressure
1025.02 hPa
Previous

1 hour ago

KOCQ 200835Z AUTO 00000KT 10SM SCT120 M12/M14 A3028 RMK AO1 T11241145
Observed
Feb-20 @ 08:35 UTC
Visibility
16,093 meters
Flight Rules
VFR
Cloud Levels
  • Scattered at 12,000' AGL
Temperature
-12°C / 10°F
Dewpoint
-15°C / 5°F
Humidity
79%
Altimeter
30.28" Hg
Pressure
1025.42 hPa